createdAt,value
2016-09-05T00:00:04.777Z,16.73
2016-09-05T00:01:04.591Z,16.71
2016-09-05T00:02:04.653Z,16.77
2016-09-05T00:03:04.719Z,16.73
2016-09-05T00:04:04.828Z,16.7
2016-09-05T00:05:04.695Z,16.88
2016-09-05T00:06:04.691Z,16.77
2016-09-05T00:07:04.759Z,16.71
2016-09-05T00:08:04.777Z,16.92
2016-09-05T00:09:04.746Z,16.86
2016-09-05T00:10:04.601Z,16.86
2016-09-05T00:11:04.648Z,16.71
2016-09-05T00:12:04.742Z,16.96
2016-09-05T00:13:04.657Z,16.86
2016-09-05T00:14:04.740Z,16.89
2016-09-05T00:15:04.715Z,16.89
2016-09-05T00:16:08.881Z,16.85
2016-09-05T00:17:16.043Z,16.88
2016-09-05T00:18:22.689Z,16.93
2016-09-05T00:19:07.687Z,16.98
2016-09-05T00:20:04.530Z,16.92
2016-09-05T00:21:04.681Z,16.93
2016-09-05T00:22:04.974Z,16.93
2016-09-05T00:23:04.509Z,16.99
2016-09-05T00:24:04.437Z,16.9
2016-09-05T00:25:04.446Z,16.95
2016-09-05T00:26:04.541Z,16.9
2016-09-05T00:27:04.454Z,16.9
2016-09-05T00:28:04.454Z,16.92
2016-09-05T00:29:04.543Z,16.86
2016-09-05T00:30:04.460Z,16.92
2016-09-05T00:31:04.523Z,16.86
2016-09-05T00:32:04.836Z,16.93
2016-09-05T00:33:04.805Z,16.98
2016-09-05T00:34:04.829Z,16.98
2016-09-05T00:35:04.825Z,16.92
2016-09-05T00:36:04.811Z,17.03
2016-09-05T00:37:04.724Z,16.81
2016-09-05T00:38:04.851Z,16.95
2016-09-05T00:39:04.907Z,16.93
2016-09-05T00:40:04.671Z,16.81
2016-09-05T00:41:04.689Z,16.99
2016-09-05T00:42:04.752Z,16.81
2016-09-05T00:43:04.741Z,16.83
2016-09-05T00:44:04.754Z,16.95
2016-09-05T00:45:10.571Z,16.86
2016-09-05T00:46:09.138Z,16.83
2016-09-05T00:47:15.787Z,16.92
2016-09-05T00:48:11.417Z,16.88
2016-09-05T00:49:12.150Z,16.95
2016-09-05T00:50:10.149Z,16.93
2016-09-05T00:51:12.479Z,16.95
2016-09-05T00:52:04.705Z,16.83
2016-09-05T00:53:07.741Z,16.96
2016-09-05T00:54:04.861Z,16.9
2016-09-05T00:55:04.824Z,16.86
2016-09-05T00:56:04.883Z,16.92
2016-09-05T00:57:04.962Z,16.95
2016-09-05T00:58:04.875Z,16.88
2016-09-05T00:59:04.741Z,16.93
2016-09-05T01:00:04.714Z,16.92
2016-09-05T01:01:04.801Z,16.8
2016-09-05T01:02:04.731Z,16.86
2016-09-05T01:03:04.726Z,16.88
2016-09-05T01:04:04.869Z,16.88
2016-09-05T01:05:04.782Z,16.92
2016-09-05T01:06:04.839Z,16.93
2016-09-05T01:07:04.877Z,16.89
2016-09-05T01:08:04.663Z,17
2016-09-05T01:09:04.691Z,16.9
2016-09-05T01:10:04.742Z,16.85
2016-09-05T01:11:04.912Z,17
2016-09-05T01:12:04.796Z,16.83
2016-09-05T01:13:04.743Z,16.92
2016-09-05T01:14:04.641Z,16.86
2016-09-05T01:15:04.763Z,16.85
2016-09-05T01:16:04.767Z,16.9
2016-09-05T01:17:04.657Z,16.89
2016-09-05T01:18:04.715Z,16.92
2016-09-05T01:19:04.713Z,16.92
2016-09-05T01:20:04.718Z,16.86
2016-09-05T01:21:04.817Z,16.9
2016-09-05T01:22:05.041Z,16.9
2016-09-05T01:23:04.733Z,17
2016-09-05T01:24:04.807Z,16.92
2016-09-05T01:25:04.878Z,16.95
2016-09-05T01:26:04.840Z,16.95
2016-09-05T01:27:07.178Z,16.89
2016-09-05T01:28:04.747Z,17
2016-09-05T01:29:04.821Z,16.92
2016-09-05T01:30:04.678Z,17
2016-09-05T01:31:04.601Z,16.9
2016-09-05T01:32:04.759Z,16.9
2016-09-05T01:33:04.753Z,16.92
2016-09-05T01:34:04.705Z,16.92
2016-09-05T01:35:04.753Z,16.96
2016-09-05T01:36:04.951Z,17.04
2016-09-05T01:37:07.597Z,16.86
2016-09-05T01:38:04.810Z,16.85
2016-09-05T01:39:04.721Z,16.86
2016-09-05T01:40:04.710Z,16.88
2016-09-05T01:41:04.809Z,16.92
2016-09-05T01:42:04.579Z,16.89
2016-09-05T01:43:04.738Z,16.88
2016-09-05T01:44:04.656Z,16.9
2016-09-05T01:45:04.648Z,16.9
2016-09-05T01:46:04.703Z,16.9
2016-09-05T01:47:04.594Z,16.92
2016-09-05T01:48:04.572Z,16.95
2016-09-05T01:49:04.521Z,16.98
2016-09-05T01:50:04.537Z,16.88
2016-09-05T01:51:04.608Z,16.99
2016-09-05T01:52:04.537Z,16.95
2016-09-05T01:53:04.532Z,16.93
2016-09-05T01:54:04.535Z,16.89
2016-09-05T01:55:04.577Z,16.9
2016-09-05T01:56:04.550Z,16.95
2016-09-05T01:57:04.557Z,16.95
2016-09-05T01:58:04.565Z,16.92
2016-09-05T01:59:04.568Z,17
2016-09-05T02:00:04.571Z,17
2016-09-05T02:01:04.603Z,17
2016-09-05T02:02:04.549Z,17.13
2016-09-05T02:03:04.574Z,16.98
2016-09-05T02:04:04.589Z,17.04
2016-09-05T02:05:04.595Z,16.99
2016-09-05T02:06:04.586Z,16.9
2016-09-05T02:07:04.595Z,16.96
2016-09-05T02:08:04.644Z,16.86
2016-09-05T02:09:04.547Z,16.95
2016-09-05T02:10:04.567Z,16.9
2016-09-05T02:11:04.561Z,16.88
2016-09-05T02:12:04.549Z,16.89
2016-09-05T02:13:04.569Z,16.89
2016-09-05T02:14:04.770Z,16.89
2016-09-05T02:15:04.774Z,16.92
2016-09-05T02:16:04.790Z,16.77
2016-09-05T02:17:04.927Z,16.86
2016-09-05T02:18:04.807Z,16.75
2016-09-05T02:19:04.807Z,16.75
2016-09-05T02:20:04.747Z,16.75
2016-09-05T02:21:04.920Z,16.8
2016-09-05T02:22:04.771Z,16.75
2016-09-05T02:23:04.866Z,16.85
2016-09-05T02:24:04.753Z,16.75
2016-09-05T02:25:04.725Z,16.81
2016-09-05T02:26:04.707Z,16.63
2016-09-05T02:27:04.756Z,16.77
2016-09-05T02:28:04.717Z,16.8
2016-09-05T02:29:04.786Z,16.78
2016-09-05T02:30:04.652Z,16.59
2016-09-05T02:31:04.676Z,16.68
2016-09-05T02:32:04.789Z,16.8
2016-09-05T02:33:04.679Z,16.75
2016-09-05T02:34:07.215Z,16.83
2016-09-05T02:35:10.532Z,16.86
2016-09-05T02:36:12.341Z,16.68
2016-09-05T02:37:50.488Z,16.78
2016-09-05T02:38:24.971Z,16.71
2016-09-05T02:39:30.251Z,16.74
2016-09-05T02:40:38.285Z,16.83
2016-09-05T02:41:20.026Z,16.77
2016-09-05T02:42:48.552Z,16.77
2016-09-05T02:43:50.373Z,16.83
2016-09-05T02:45:02.702Z,16.85
2016-09-05T02:46:05.557Z,16.81
2016-09-05T02:48:10.760Z,16.95
2016-09-05T02:48:55.393Z,16.98
2016-09-05T02:49:54.514Z,16.95
2016-09-05T02:50:50.623Z,16.83
2016-09-05T02:52:15.180Z,16.95
2016-09-05T02:53:25.892Z,16.9
2016-09-05T02:54:31.202Z,16.83
2016-09-05T02:55:27.300Z,16.96
2016-09-05T02:56:28.336Z,16.83
2016-09-05T02:57:30.179Z,16.83
2016-09-05T02:58:23.006Z,16.88
2016-09-05T02:59:19.674Z,16.9
2016-09-05T03:01:11.776Z,16.88
2016-09-05T03:01:52.076Z,16.85
2016-09-05T03:02:57.404Z,16.8
2016-09-05T03:03:57.533Z,16.75
2016-09-05T03:05:29.648Z,16.83
2016-09-05T03:06:15.861Z,16.77
2016-09-05T03:07:21.252Z,16.73
2016-09-05T03:08:26.627Z,16.77
2016-09-05T03:09:34.772Z,16.83
2016-09-05T03:10:17.650Z,16.78
2016-09-05T03:11:20.693Z,16.68
2016-09-05T03:12:21.180Z,16.8
2016-09-05T03:13:27.268Z,16.73
2016-09-05T03:14:45.825Z,16.73
2016-09-05T03:15:57.329Z,16.67
2016-09-05T03:16:26.891Z,16.71
2016-09-05T03:17:26.889Z,16.73
2016-09-05T03:18:26.864Z,16.67
2016-09-05T03:19:26.931Z,16.63
2016-09-05T03:20:26.863Z,16.63
2016-09-05T03:21:26.861Z,16.59
2016-09-05T03:22:26.904Z,16.62
2016-09-05T03:23:26.863Z,16.53
2016-09-05T03:24:26.891Z,16.59
2016-09-05T03:25:26.860Z,16.6
2016-09-05T03:26:26.865Z,16.56
2016-09-05T03:27:26.899Z,16.56
2016-09-05T03:28:26.876Z,16.62
2016-09-05T03:29:26.894Z,16.58
2016-09-05T03:30:26.886Z,16.56
2016-09-05T03:31:26.881Z,16.55
2016-09-05T03:32:26.873Z,16.56
2016-09-05T03:33:26.876Z,16.59
2016-09-05T03:34:26.872Z,16.58
2016-09-05T03:35:26.903Z,16.56
2016-09-05T03:36:26.903Z,16.53
2016-09-05T03:37:26.886Z,16.5
2016-09-05T03:38:26.895Z,16.62
2016-09-05T03:39:26.873Z,16.52
2016-09-05T03:40:26.893Z,16.45
2016-09-05T03:41:26.915Z,16.49
2016-09-05T03:42:26.994Z,16.52
2016-09-05T03:43:26.891Z,16.41
2016-09-05T03:44:26.890Z,16.5
2016-09-05T03:45:26.899Z,16.37
2016-09-05T03:46:26.891Z,16.49
2016-09-05T03:47:26.895Z,16.48
2016-09-05T03:48:26.875Z,16.52
2016-09-05T03:49:26.900Z,16.53
2016-09-05T03:50:26.904Z,16.48
2016-09-05T03:51:26.949Z,16.42
2016-09-05T03:52:26.880Z,16.44
2016-09-05T03:53:26.886Z,16.44
2016-09-05T03:54:26.904Z,16.44
2016-09-05T03:55:26.889Z,16.48
2016-09-05T03:56:26.911Z,16.5
2016-09-05T03:57:26.884Z,16.42
2016-09-05T03:58:26.893Z,16.41
2016-09-05T03:59:26.920Z,16.4
2016-09-05T04:00:26.906Z,16.41
2016-09-05T04:01:26.899Z,16.5
2016-09-05T04:02:26.920Z,16.62
2016-09-05T04:03:26.926Z,16.42
2016-09-05T04:04:26.921Z,16.55
2016-09-05T04:05:26.907Z,16.49
2016-09-05T04:06:26.885Z,16.53
2016-09-05T04:07:26.926Z,16.56
2016-09-05T04:08:26.951Z,16.58
2016-09-05T04:09:26.954Z,16.6
2016-09-05T04:10:26.937Z,16.59
2016-09-05T04:11:26.922Z,16.49
2016-09-05T04:12:26.924Z,16.56
2016-09-05T04:13:26.911Z,16.56
2016-09-05T04:14:26.952Z,16.52
2016-09-05T04:15:27.272Z,16.65
2016-09-05T04:16:29.005Z,16.63
2016-09-05T04:17:32.266Z,16.62
2016-09-05T04:18:31.333Z,16.73
2016-09-05T04:19:39.455Z,16.59
2016-09-05T04:20:32.898Z,16.65
2016-09-05T04:21:41.209Z,16.74
2016-09-05T04:22:31.177Z,16.62
2016-09-05T04:23:33.666Z,16.67
2016-09-05T04:24:36.091Z,16.59
2016-09-05T04:25:36.133Z,16.56
2016-09-05T04:26:32.986Z,16.59
2016-09-05T04:27:39.434Z,16.56
2016-09-05T04:28:28.287Z,16.67
2016-09-05T04:29:28.771Z,16.58
2016-09-05T04:30:34.240Z,16.63
2016-09-05T04:31:34.362Z,16.71
2016-09-05T04:32:34.698Z,16.67
2016-09-05T04:33:33.448Z,16.53
2016-09-05T04:34:29.763Z,16.63
2016-09-05T04:35:36.884Z,16.62
2016-09-05T04:36:39.119Z,16.59
2016-09-05T04:37:39.127Z,16.45
2016-09-05T04:38:31.821Z,16.58
2016-09-05T04:39:26.983Z,16.71
2016-09-05T04:40:26.920Z,16.65
2016-09-05T04:41:26.939Z,16.73
2016-09-05T04:42:26.947Z,16.63
2016-09-05T04:43:27.014Z,16.63
2016-09-05T04:44:26.967Z,16.63
2016-09-05T04:45:26.940Z,16.68
2016-09-05T04:46:26.957Z,16.59
2016-09-05T04:47:26.939Z,16.56
2016-09-05T04:48:26.954Z,16.7
2016-09-05T04:49:26.999Z,16.59
2016-09-05T04:50:26.952Z,16.65
2016-09-05T04:51:26.970Z,16.68
2016-09-05T04:52:26.940Z,16.7
2016-09-05T04:53:26.971Z,16.58
2016-09-05T04:54:26.973Z,16.58
2016-09-05T04:55:26.957Z,16.58
2016-09-05T04:56:26.939Z,16.56
2016-09-05T04:57:26.983Z,16.65
2016-09-05T04:58:26.968Z,16.65
2016-09-05T04:59:26.927Z,16.6
2016-09-05T05:00:26.972Z,16.6
2016-09-05T05:01:26.983Z,16.62
2016-09-05T05:02:26.953Z,16.62
2016-09-05T05:03:26.942Z,16.63
2016-09-05T05:04:26.939Z,16.55
2016-09-05T05:05:26.960Z,16.59
2016-09-05T05:06:26.966Z,16.58
2016-09-05T05:07:26.957Z,16.71
2016-09-05T05:08:26.966Z,16.59
2016-09-05T05:09:26.996Z,16.7
2016-09-05T05:10:26.996Z,16.53
2016-09-05T05:11:26.957Z,16.7
2016-09-05T05:12:26.977Z,16.56
2016-09-05T05:13:26.959Z,16.65
2016-09-05T05:14:26.991Z,16.59
2016-09-05T05:15:26.969Z,16.63
2016-09-05T05:16:26.963Z,16.62
2016-09-05T05:17:27.013Z,16.7
2016-09-05T05:18:26.968Z,16.63
2016-09-05T05:19:26.953Z,16.58
2016-09-05T05:20:26.974Z,16.67
2016-09-05T05:21:26.970Z,16.68
2016-09-05T05:22:27.036Z,16.75
2016-09-05T05:23:26.966Z,16.59
2016-09-05T05:24:26.957Z,16.63
2016-09-05T05:25:26.984Z,16.6
2016-09-05T05:26:27.032Z,16.65
2016-09-05T05:27:26.955Z,16.68
2016-09-05T05:28:26.986Z,16.77
2016-09-05T05:29:27.037Z,16.75
2016-09-05T05:30:26.969Z,16.78
2016-09-05T05:31:26.993Z,16.63
2016-09-05T05:32:27.004Z,16.75
2016-09-05T05:33:26.989Z,16.81
2016-09-05T05:34:27.001Z,16.77
2016-09-05T05:35:26.976Z,16.78
2016-09-05T05:36:27.000Z,16.74
2016-09-05T05:37:26.985Z,16.81
2016-09-05T05:38:27.011Z,16.81
2016-09-05T05:39:26.985Z,16.74
2016-09-05T05:40:27.017Z,16.7
2016-09-05T05:41:26.988Z,16.77
2016-09-05T05:42:27.056Z,16.88
2016-09-05T05:43:27.047Z,16.86
2016-09-05T05:44:26.999Z,16.8
2016-09-05T05:45:27.004Z,16.89
2016-09-05T05:46:27.002Z,16.8
2016-09-05T05:47:27.006Z,16.85
2016-09-05T05:48:26.994Z,16.95
2016-09-05T05:49:26.985Z,16.95
2016-09-05T05:50:27.020Z,16.96
2016-09-05T05:51:27.045Z,16.98
2016-09-05T05:52:27.000Z,17.11
2016-09-05T05:53:27.017Z,17
2016-09-05T05:54:27.009Z,17.23
2016-09-05T05:55:27.035Z,17.1
2016-09-05T05:56:27.033Z,17.17
2016-09-05T05:57:27.037Z,17.1
2016-09-05T05:58:27.095Z,17.25
2016-09-05T05:59:27.010Z,17.25
2016-09-05T06:00:27.017Z,17.15
2016-09-05T06:01:27.004Z,17.36
2016-09-05T06:02:26.995Z,17.35
2016-09-05T06:03:26.985Z,17.41
2016-09-05T06:04:26.999Z,17.4
2016-09-05T06:05:26.988Z,17.36
2016-09-05T06:06:27.020Z,17.38
2016-09-05T06:07:27.016Z,17.48
2016-09-05T06:08:27.037Z,17.46
2016-09-05T06:09:27.026Z,17.44
2016-09-05T06:10:26.989Z,17.48
2016-09-05T06:11:26.995Z,17.41
2016-09-05T06:12:27.005Z,17.5
2016-09-05T06:13:27.022Z,17.59
2016-09-05T06:14:27.001Z,17.57
2016-09-05T06:15:27.002Z,17.73
2016-09-05T06:16:27.004Z,17.69
2016-09-05T06:17:27.022Z,17.63
2016-09-05T06:18:27.009Z,17.74
2016-09-05T06:19:27.038Z,17.74
2016-09-05T06:20:27.067Z,17.84
2016-09-05T06:21:27.034Z,17.79
2016-09-05T06:22:27.029Z,17.81
2016-09-05T06:23:27.018Z,17.82
2016-09-05T06:24:27.028Z,17.82
2016-09-05T06:25:27.026Z,17.97
2016-09-05T06:26:27.019Z,17.84
2016-09-05T06:27:27.040Z,17.95
2016-09-05T06:28:27.017Z,17.92
2016-09-05T06:29:27.040Z,17.99
2016-09-05T06:30:27.085Z,17.99
2016-09-05T06:31:27.047Z,18.04
2016-09-05T06:32:27.038Z,18.15
2016-09-05T06:33:27.057Z,18.18
2016-09-05T06:34:27.019Z,18.25
2016-09-05T06:35:27.042Z,18.25
2016-09-05T06:36:27.033Z,18.33
2016-09-05T06:37:27.054Z,18.18
2016-09-05T06:38:27.068Z,18.24
2016-09-05T06:39:27.051Z,18.29
2016-09-05T06:40:27.056Z,18.24
2016-09-05T06:41:27.123Z,18.21
2016-09-05T06:42:27.110Z,18.19
2016-09-05T06:43:27.050Z,18.19
2016-09-05T06:44:27.085Z,18.19
2016-09-05T06:45:27.052Z,18.09
2016-09-05T06:46:27.054Z,18.1
2016-09-05T06:47:27.087Z,18.03
2016-09-05T06:48:27.054Z,17.99
2016-09-05T06:49:27.061Z,17.89
2016-09-05T06:50:27.080Z,17.91
2016-09-05T06:51:27.124Z,18.04
2016-09-05T06:52:27.116Z,18.03
2016-09-05T06:53:27.082Z,17.89
2016-09-05T06:54:27.093Z,18.04
2016-09-05T06:55:27.051Z,18.02
2016-09-05T06:56:27.124Z,18.04
2016-09-05T06:57:27.071Z,18.09
2016-09-05T06:58:27.048Z,18.13
2016-09-05T06:59:27.050Z,18.29
2016-09-05T07:00:27.086Z,18.34
2016-09-05T07:01:27.069Z,18.59
2016-09-05T07:02:27.062Z,18.61
2016-09-05T07:03:27.064Z,18.8
2016-09-05T07:04:27.051Z,18.9
2016-09-05T07:05:27.087Z,18.94
2016-09-05T07:06:27.084Z,18.94
2016-09-05T07:07:27.093Z,18.98
2016-09-05T07:08:27.064Z,18.98
2016-09-05T07:09:27.074Z,18.95
2016-09-05T07:10:27.061Z,18.94
2016-09-05T07:11:27.071Z,18.87
2016-09-05T07:12:27.084Z,18.98
2016-09-05T07:13:27.082Z,18.92
2016-09-05T07:14:27.109Z,19.06
2016-09-05T07:15:27.113Z,19.13
2016-09-05T07:16:27.097Z,19.25
2016-09-05T07:17:27.082Z,19.36
2016-09-05T07:18:27.096Z,19.36
2016-09-05T07:19:27.101Z,19.35
2016-09-05T07:20:27.091Z,19.31
2016-09-05T07:21:27.094Z,19.43
2016-09-05T07:22:27.159Z,19.47
2016-09-05T07:23:27.096Z,19.42
2016-09-05T07:24:27.200Z,19.38
2016-09-05T07:25:27.071Z,19.47
2016-09-05T07:26:27.130Z,19.47
2016-09-05T07:27:45.574Z,19.61
2016-09-05T07:28:43.790Z,19.68
2016-09-05T07:29:33.608Z,19.61
2016-09-05T07:30:36.903Z,19.69
2016-09-05T07:31:45.927Z,19.8
2016-09-05T07:33:02.770Z,19.93
2016-09-05T07:34:26.574Z,19.76
2016-09-05T07:35:49.658Z,19.66
2016-09-05T07:36:20.047Z,19.68
2016-09-05T07:37:46.823Z,19.6
2016-09-05T07:38:45.254Z,19.76
2016-09-05T07:39:44.294Z,19.66
2016-09-05T07:40:43.054Z,19.75
2016-09-05T07:41:23.285Z,19.9
2016-09-05T07:42:22.550Z,19.87
2016-09-05T07:43:22.558Z,20.02
2016-09-05T07:44:22.527Z,20.08
2016-09-05T07:45:22.566Z,20.18
2016-09-05T07:46:22.542Z,20.28
2016-09-05T07:47:22.566Z,20.12
2016-09-05T07:48:22.584Z,20.23
2016-09-05T07:49:22.534Z,20.15
2016-09-05T07:50:22.571Z,20.25
2016-09-05T07:51:22.562Z,20.35
2016-09-05T07:52:22.541Z,20.42
2016-09-05T07:53:22.568Z,20.43
2016-09-05T07:54:22.554Z,20.65
2016-09-05T07:55:22.562Z,20.58
2016-09-05T07:56:22.569Z,20.65
2016-09-05T07:57:22.553Z,20.72
2016-09-05T07:58:22.552Z,20.53
2016-09-05T07:59:22.568Z,20.64
2016-09-05T08:00:22.601Z,20.71
2016-09-05T08:01:22.570Z,20.72
2016-09-05T08:02:22.577Z,20.77
2016-09-05T08:03:22.557Z,20.81
2016-09-05T08:04:22.590Z,20.81
2016-09-05T08:05:22.585Z,20.83
2016-09-05T08:06:22.576Z,20.79
2016-09-05T08:07:22.568Z,20.81
2016-09-05T08:08:22.575Z,20.77
2016-09-05T08:09:22.567Z,20.76
2016-09-05T08:10:22.567Z,20.79
2016-09-05T08:11:22.567Z,20.8
2016-09-05T08:12:22.571Z,20.74
2016-09-05T08:13:22.586Z,20.86
2016-09-05T08:14:22.586Z,20.72
2016-09-05T08:15:22.600Z,20.81
2016-09-05T08:16:22.635Z,20.81
2016-09-05T08:17:22.675Z,20.71
2016-09-05T08:18:22.574Z,20.84
2016-09-05T08:19:22.710Z,20.86
2016-09-05T08:20:22.590Z,20.84
2016-09-05T08:21:22.609Z,20.9
2016-09-05T08:22:22.831Z,21.02
2016-09-05T08:23:22.618Z,21.09
2016-09-05T08:24:22.715Z,21.24
2016-09-05T08:25:22.618Z,21.34
2016-09-05T08:26:22.914Z,21.5
2016-09-05T08:27:23.155Z,21.67
2016-09-05T08:28:22.982Z,21.91
2016-09-05T08:29:22.917Z,21.87
2016-09-05T08:30:22.966Z,21.91
2016-09-05T08:31:22.959Z,21.99
2016-09-05T08:32:22.885Z,22.02
2016-09-05T08:33:22.949Z,22.04
2016-09-05T08:34:22.772Z,22.06
2016-09-05T08:35:23.070Z,22.22
2016-09-05T08:36:22.823Z,22.22
2016-09-05T08:37:22.721Z,22.41
2016-09-05T08:38:22.861Z,22.31
2016-09-05T08:39:22.861Z,22.32
2016-09-05T08:40:23.044Z,22.43
2016-09-05T08:41:23.158Z,22.5
2016-09-05T08:42:23.235Z,22.5
2016-09-05T08:43:22.817Z,22.44
2016-09-05T08:44:22.907Z,22.41
2016-09-05T08:45:22.873Z,22.47
2016-09-05T08:46:25.182Z,22.38
2016-09-05T08:47:23.176Z,22.28
2016-09-05T08:48:24.421Z,22.2
2016-09-05T08:49:23.446Z,22.35
2016-09-05T08:50:26.231Z,22.35
2016-09-05T08:51:25.587Z,22.37
2016-09-05T08:52:24.195Z,22.39
2016-09-05T08:53:22.882Z,22.35
2016-09-05T08:54:22.804Z,22.29
2016-09-05T08:55:22.805Z,22.22
2016-09-05T08:56:22.888Z,22.23
2016-09-05T08:57:22.848Z,22.1
2016-09-05T08:58:22.922Z,22.01
2016-09-05T08:59:22.777Z,22.14
2016-09-05T09:00:24.037Z,22.19
2016-09-05T09:01:23.003Z,22.16
2016-09-05T09:02:23.445Z,22.32
2016-09-05T09:03:22.845Z,22.32
2016-09-05T09:04:22.858Z,22.17
2016-09-05T09:05:23.111Z,22.25
2016-09-05T09:06:22.834Z,22.37
2016-09-05T09:07:22.983Z,22.31
2016-09-05T09:08:22.827Z,22.34
2016-09-05T09:09:22.846Z,22.27
2016-09-05T09:10:22.705Z,22.34
2016-09-05T09:11:22.843Z,22.19
2016-09-05T09:12:22.870Z,22.14
2016-09-05T09:13:22.894Z,22.09
2016-09-05T09:14:23.075Z,22.01
2016-09-05T09:15:22.761Z,21.82
2016-09-05T09:16:23.215Z,21.81
2016-09-05T09:17:22.664Z,21.67
2016-09-05T09:18:24.423Z,21.67
2016-09-05T09:19:24.689Z,21.51
2016-09-05T09:20:23.257Z,21.56
2016-09-05T09:21:24.625Z,21.5
2016-09-05T09:22:30.811Z,21.46
2016-09-05T09:23:27.559Z,21.56
2016-09-05T09:24:26.718Z,21.38
2016-09-05T09:25:23.631Z,21.35
2016-09-05T09:26:22.684Z,21.54
2016-09-05T09:27:22.803Z,21.51
2016-09-05T09:28:23.365Z,21.51
2016-09-05T09:29:22.776Z,21.5
2016-09-05T09:30:22.659Z,21.53
2016-09-05T09:31:22.812Z,21.59
2016-09-05T09:32:22.708Z,21.78
2016-09-05T09:33:22.710Z,21.72
2016-09-05T09:34:22.670Z,21.92
2016-09-05T09:35:22.759Z,22.12
2016-09-05T09:36:22.811Z,22.25
2016-09-05T09:37:22.700Z,22.12
2016-09-05T09:38:22.843Z,22.28
2016-09-05T09:39:22.682Z,22.2
2016-09-05T09:40:23.045Z,22.12
2016-09-05T09:41:22.872Z,22.2
2016-09-05T09:42:22.663Z,22.37
2016-09-05T09:43:22.826Z,22.35
2016-09-05T09:44:22.711Z,22.39
2016-09-05T09:45:22.918Z,22.43
2016-09-05T09:46:22.665Z,22.46
2016-09-05T09:47:22.717Z,22.52
2016-09-05T09:48:22.839Z,22.67
2016-09-05T09:49:22.688Z,22.8
2016-09-05T09:50:22.681Z,22.82
2016-09-05T09:51:22.678Z,22.72
2016-09-05T09:52:23.250Z,22.71
2016-09-05T09:53:22.949Z,22.68
2016-09-05T09:54:22.708Z,22.74
2016-09-05T09:55:22.826Z,22.75
2016-09-05T09:56:22.678Z,22.86
2016-09-05T09:57:22.774Z,22.89
2016-09-05T09:58:24.856Z,22.99
2016-09-05T09:59:22.872Z,23.05
2016-09-05T10:00:22.730Z,23.17
2016-09-05T10:01:22.793Z,23.27
2016-09-05T10:02:22.681Z,23.39
2016-09-05T10:03:22.666Z,23.32
2016-09-05T10:04:22.712Z,23.27
2016-09-05T10:05:22.778Z,23.32
2016-09-05T10:06:23.469Z,23.39
2016-09-05T10:07:22.680Z,23.46
2016-09-05T10:08:22.803Z,23.52
2016-09-05T10:09:22.689Z,23.52
2016-09-05T10:10:24.270Z,23.62
2016-09-05T10:11:22.709Z,23.79
2016-09-05T10:12:24.071Z,23.75
2016-09-05T10:13:22.683Z,23.85
2016-09-05T10:14:22.754Z,23.77
2016-09-05T10:15:22.771Z,23.83
2016-09-05T10:16:22.713Z,23.71
2016-09-05T10:17:22.786Z,23.79
2016-09-05T10:18:22.711Z,23.92
2016-09-05T10:19:22.776Z,24.07
2016-09-05T10:20:22.896Z,24.08
2016-09-05T10:21:22.791Z,24.04
2016-09-05T10:22:22.728Z,23.95
2016-09-05T10:23:22.715Z,24.27
2016-09-05T10:24:22.746Z,24.42
2016-09-05T10:25:23.043Z,24.63
2016-09-05T10:26:22.773Z,24.76
2016-09-05T10:27:22.830Z,24.5
2016-09-05T10:28:22.697Z,24.59
2016-09-05T10:29:22.795Z,24.5
2016-09-05T10:30:22.749Z,24.38
2016-09-05T10:31:22.797Z,24.32
2016-09-05T10:32:22.708Z,24.39
2016-09-05T10:33:22.731Z,24.32
2016-09-05T10:34:22.736Z,24.34
2016-09-05T10:35:22.743Z,24.39
2016-09-05T10:36:22.730Z,24.31
2016-09-05T10:37:22.734Z,24.19
2016-09-05T10:38:22.771Z,24.17
2016-09-05T10:39:22.807Z,23.94
2016-09-05T10:40:22.728Z,24.07
2016-09-05T10:41:22.789Z,24.01
2016-09-05T10:42:22.712Z,24.22
2016-09-05T10:43:22.743Z,24.24
2016-09-05T10:44:22.745Z,24.17
2016-09-05T10:45:22.803Z,24.41
2016-09-05T10:46:22.782Z,24.76
2016-09-05T10:47:22.736Z,24.8
2016-09-05T10:48:22.758Z,24.75
2016-09-05T10:49:22.769Z,24.42
2016-09-05T10:50:22.861Z,24.68
2016-09-05T10:51:22.829Z,24.71
2016-09-05T10:52:22.766Z,24.49
2016-09-05T10:53:22.733Z,24.57
2016-09-05T10:54:22.794Z,24.45
2016-09-05T10:55:22.738Z,24.42
2016-09-05T10:56:22.759Z,24.75
2016-09-05T10:57:22.764Z,24.54
2016-09-05T10:58:22.767Z,24.63
2016-09-05T10:59:22.725Z,24.63
2016-09-05T11:00:22.745Z,24.67
2016-09-05T11:01:22.773Z,24.82
2016-09-05T11:02:22.771Z,24.83
2016-09-05T11:03:22.781Z,24.64
2016-09-05T11:04:22.746Z,24.95
2016-09-05T11:05:22.816Z,24.87
2016-09-05T11:06:22.785Z,25.07
2016-09-05T11:07:22.764Z,24.98
2016-09-05T11:08:22.761Z,25.09
2016-09-05T11:09:22.745Z,25.17
2016-09-05T11:10:22.778Z,25.16
2016-09-05T11:11:22.763Z,25.2
2016-09-05T11:12:22.792Z,25.15
2016-09-05T11:13:22.776Z,25.13
2016-09-05T11:14:22.760Z,25.07
2016-09-05T11:15:22.758Z,25.12
2016-09-05T11:16:22.840Z,25.09
2016-09-05T11:17:22.800Z,25.09
2016-09-05T11:18:22.763Z,25
2016-09-05T11:19:22.779Z,25.07
2016-09-05T11:20:22.765Z,25.01
2016-09-05T11:21:22.811Z,25.25
2016-09-05T11:22:22.775Z,25.38
2016-09-05T11:23:22.848Z,25.46
2016-09-05T11:24:22.787Z,25.52
2016-09-05T11:25:22.880Z,25.65
2016-09-05T11:26:22.759Z,25.62
2016-09-05T11:27:22.776Z,25.62
2016-09-05T11:28:22.793Z,25.65
2016-09-05T11:29:22.891Z,25.59
2016-09-05T11:30:22.786Z,25.52
2016-09-05T11:31:22.800Z,25.64
2016-09-05T11:32:22.826Z,25.46
2016-09-05T11:33:22.817Z,25.46
2016-09-05T11:34:22.852Z,25.46
2016-09-05T11:35:22.790Z,25.38
2016-09-05T11:36:22.775Z,25.22
2016-09-05T11:37:22.800Z,25.34
2016-09-05T11:38:22.790Z,25.24
2016-09-05T11:39:22.791Z,25.17
2016-09-05T11:40:22.869Z,25.15
2016-09-05T11:41:22.926Z,25.25
2016-09-05T11:42:22.792Z,25.27
2016-09-05T11:43:22.813Z,25.35
2016-09-05T11:44:23.257Z,25.34
2016-09-05T11:45:22.814Z,25.3
2016-09-05T11:46:22.889Z,25.12
2016-09-05T11:47:22.803Z,25.13
2016-09-05T11:48:22.943Z,25.19
2016-09-05T11:49:22.962Z,25.25
2016-09-05T11:50:22.888Z,25.34
2016-09-05T11:51:22.989Z,25.32
2016-09-05T11:52:22.807Z,25.34
2016-09-05T11:53:22.829Z,25.47
2016-09-05T11:54:22.820Z,25.47
2016-09-05T11:55:22.852Z,25.52
2016-09-05T11:56:22.843Z,25.53
2016-09-05T11:57:22.808Z,25.62
2016-09-05T11:58:22.830Z,25.57
2016-09-05T11:59:22.795Z,25.59
2016-09-05T12:00:22.994Z,25.67
2016-09-05T12:01:22.908Z,25.64
2016-09-05T12:02:22.891Z,25.67
2016-09-05T12:03:22.978Z,25.71
2016-09-05T12:04:22.869Z,25.74
2016-09-05T12:05:22.904Z,25.68
2016-09-05T12:06:22.887Z,25.77
2016-09-05T12:07:22.846Z,25.67
2016-09-05T12:08:22.912Z,25.71
2016-09-05T12:09:22.881Z,25.86
2016-09-05T12:10:22.902Z,25.9
2016-09-05T12:11:22.852Z,25.91
2016-09-05T12:12:22.906Z,25.9
2016-09-05T12:13:22.858Z,25.89
2016-09-05T12:14:22.809Z,25.99
2016-09-05T12:15:22.965Z,26.12
2016-09-05T12:16:22.865Z,26.06
2016-09-05T12:17:22.873Z,26.12
2016-09-05T12:18:22.897Z,25.99
2016-09-05T12:19:22.862Z,25.89
2016-09-05T12:20:22.985Z,25.87
2016-09-05T12:21:22.845Z,25.74
2016-09-05T12:22:22.861Z,25.69
2016-09-05T12:23:22.923Z,25.49
2016-09-05T12:24:22.857Z,25.32
2016-09-05T12:25:22.898Z,25.34
2016-09-05T12:26:22.844Z,25.2
2016-09-05T12:27:22.873Z,25.12
2016-09-05T12:28:22.931Z,25.02
2016-09-05T12:29:22.833Z,24.8
2016-09-05T12:30:22.891Z,24.92
2016-09-05T12:31:22.870Z,24.69
2016-09-05T12:32:22.862Z,24.68
2016-09-05T12:33:22.870Z,24.56
2016-09-05T12:34:22.766Z,24.41
2016-09-05T12:35:22.818Z,24.54
2016-09-05T12:36:22.962Z,24.37
2016-09-05T12:37:22.807Z,24.12
2016-09-05T12:38:22.900Z,24.19
2016-09-05T12:39:22.847Z,24.2
2016-09-05T12:40:22.795Z,24.29
2016-09-05T12:41:22.858Z,24.14
2016-09-05T12:42:22.810Z,24.08
2016-09-05T12:43:22.932Z,24.1
2016-09-05T12:44:22.839Z,23.83
2016-09-05T12:45:22.881Z,24.02
2016-09-05T12:46:22.844Z,23.92
2016-09-05T12:47:22.999Z,24
2016-09-05T12:48:22.798Z,23.97
2016-09-05T12:49:22.794Z,24.08
2016-09-05T12:50:22.859Z,23.95
2016-09-05T12:51:22.817Z,23.98
2016-09-05T12:52:22.842Z,23.85
2016-09-05T12:53:22.807Z,23.97
2016-09-05T12:54:22.810Z,23.86
2016-09-05T12:55:22.799Z,23.98
2016-09-05T12:56:22.853Z,23.94
2016-09-05T12:57:22.812Z,23.97
2016-09-05T12:58:22.841Z,23.87
2016-09-05T12:59:22.885Z,24.08
2016-09-05T13:00:22.875Z,24.01